createdAt,value
2023-05-09T00:00:20.205Z,2.10
2023-05-09T00:01:20.222Z,2.08
2023-05-09T00:02:20.297Z,2.09
2023-05-09T00:03:20.279Z,2.05
2023-05-09T00:04:20.377Z,2.07
2023-05-09T00:05:20.333Z,2.07
2023-05-09T00:06:20.497Z,2.09
2023-05-09T00:07:20.404Z,2.08
2023-05-09T00:08:20.392Z,2.06
2023-05-09T00:09:20.477Z,2.07
2023-05-09T00:10:20.538Z,2.09
2023-05-09T00:11:20.592Z,2.02
2023-05-09T00:12:20.598Z,1.99
2023-05-09T00:13:20.651Z,2.07
2023-05-09T00:14:20.637Z,2.06
2023-05-09T00:15:20.651Z,2.04
2023-05-09T00:16:20.826Z,2.06
2023-05-09T00:17:20.746Z,2.07
2023-05-09T00:18:20.773Z,2.05
2023-05-09T00:19:20.816Z,2.05
2023-05-09T00:20:20.891Z,2.06
2023-05-09T00:21:20.870Z,2.06
2023-05-09T00:22:20.937Z,2.02
2023-05-09T00:23:20.881Z,2.02
2023-05-09T00:24:20.995Z,2.02
2023-05-09T00:25:20.991Z,2.05
2023-05-09T00:26:21.028Z,2.04
2023-05-09T00:27:21.036Z,2.04
2023-05-09T00:28:21.052Z,2.05
2023-05-09T00:29:21.102Z,2.04
2023-05-09T00:30:21.165Z,2.01
2023-05-09T00:31:21.196Z,2.07
2023-05-09T00:32:21.182Z,2.01
2023-05-09T00:33:21.243Z,2.04
2023-05-09T00:34:21.258Z,2.01
2023-05-09T00:35:21.322Z,2.03
2023-05-09T00:36:21.312Z,2.05
2023-05-09T00:37:21.329Z,2.03
2023-05-09T00:38:21.460Z,1.99
2023-05-09T00:39:21.399Z,2.01
2023-05-09T00:40:21.438Z,1.98
2023-05-09T00:41:21.449Z,2.00
2023-05-09T00:42:21.452Z,1.99
2023-05-09T00:43:21.464Z,2.04
2023-05-09T00:44:21.530Z,2.01
2023-05-09T00:45:21.590Z,1.98
2023-05-09T00:46:21.641Z,1.97
2023-05-09T00:47:21.595Z,2.00
2023-05-09T00:48:21.608Z,2.03
2023-05-09T00:49:22.020Z,2.00
2023-05-09T00:50:21.720Z,1.99
2023-05-09T00:51:21.715Z,2.02
2023-05-09T00:52:21.718Z,2.00
2023-05-09T00:53:21.722Z,2.01
2023-05-09T00:54:21.990Z,1.97
2023-05-09T00:55:21.834Z,1.99
2023-05-09T00:56:21.840Z,1.98
2023-05-09T00:57:21.882Z,1.97
2023-05-09T00:58:22.081Z,1.95
2023-05-09T00:59:21.939Z,2.01
2023-05-09T01:00:21.964Z,1.97
2023-05-09T01:01:22.013Z,1.98
2023-05-09T01:02:22.054Z,2.02
2023-05-09T01:03:22.134Z,1.96
2023-05-09T01:04:22.115Z,2.00
2023-05-09T01:05:22.128Z,1.97
2023-05-09T01:06:22.098Z,1.99
2023-05-09T01:07:22.143Z,1.97
2023-05-09T01:08:22.204Z,1.98
2023-05-09T01:09:22.219Z,1.99
2023-05-09T01:10:22.322Z,1.97
2023-05-09T01:11:22.265Z,1.98
2023-05-09T01:12:22.357Z,1.96
2023-05-09T01:13:23.088Z,1.97
2023-05-09T01:14:22.320Z,1.99
2023-05-09T01:15:22.365Z,1.98
2023-05-09T01:16:22.439Z,1.96
2023-05-09T01:17:22.478Z,1.98
2023-05-09T01:18:22.457Z,1.95
2023-05-09T01:19:22.464Z,1.98
2023-05-09T01:20:22.554Z,1.98
2023-05-09T01:21:22.647Z,1.98
2023-05-09T01:22:22.654Z,1.92
2023-05-09T01:23:22.722Z,2.00
2023-05-09T01:24:22.714Z,1.96
2023-05-09T01:25:22.813Z,1.95
2023-05-09T01:26:22.891Z,1.95
2023-05-09T01:27:22.855Z,1.95
2023-05-09T01:28:22.872Z,1.94
2023-05-09T01:29:22.870Z,1.95
2023-05-09T01:30:22.908Z,2.00
2023-05-09T01:31:23.010Z,1.98
2023-05-09T01:32:23.055Z,1.96
2023-05-09T01:33:22.972Z,1.96
2023-05-09T01:34:23.027Z,1.96
2023-05-09T01:35:23.119Z,1.97
2023-05-09T01:36:23.120Z,1.92
2023-05-09T01:37:23.102Z,1.95
2023-05-09T01:38:23.167Z,1.94
2023-05-09T01:39:23.175Z,1.94
2023-05-09T01:40:23.192Z,1.95
2023-05-09T01:41:23.220Z,1.93
2023-05-09T01:42:23.353Z,1.96
2023-05-09T01:43:23.310Z,1.93
2023-05-09T01:44:23.311Z,1.93
2023-05-09T01:45:23.353Z,1.93
2023-05-09T01:46:23.419Z,1.95
2023-05-09T01:47:23.459Z,1.93
2023-05-09T01:48:23.411Z,1.92
2023-05-09T01:49:23.488Z,1.93
2023-05-09T01:50:23.531Z,1.93
2023-05-09T01:51:23.508Z,1.94
2023-05-09T01:52:23.544Z,1.94
2023-05-09T01:53:23.582Z,1.91
2023-05-09T01:54:23.617Z,1.92
2023-05-09T01:55:23.626Z,1.90
2023-05-09T01:56:23.679Z,1.91
2023-05-09T01:57:23.700Z,1.92
2023-05-09T01:58:23.824Z,1.90
2023-05-09T01:59:23.799Z,1.90
2023-05-09T02:00:23.838Z,1.91
2023-05-09T02:01:23.984Z,1.93
2023-05-09T02:02:23.861Z,1.94
2023-05-09T02:03:23.995Z,1.91
2023-05-09T02:04:23.923Z,1.92
2023-05-09T02:05:23.973Z,1.95
2023-05-09T02:06:24.148Z,1.92
2023-05-09T02:07:24.253Z,1.93
2023-05-09T02:08:24.459Z,1.93
2023-05-09T02:09:24.543Z,1.92
2023-05-09T02:10:24.578Z,1.90
2023-05-09T02:11:24.624Z,1.95
2023-05-09T02:12:24.625Z,1.88
2023-05-09T02:13:24.702Z,1.89
2023-05-09T02:14:24.800Z,1.87
2023-05-09T02:15:24.790Z,1.86
2023-05-09T02:16:24.811Z,1.92
2023-05-09T02:17:24.828Z,1.91
2023-05-09T02:18:24.898Z,1.91
2023-05-09T02:19:24.925Z,1.89
2023-05-09T02:20:24.937Z,1.88
2023-05-09T02:21:25.890Z,1.91
2023-05-09T02:22:25.016Z,1.90
2023-05-09T02:23:25.052Z,1.89
2023-05-09T02:24:25.128Z,1.91
2023-05-09T02:25:25.125Z,1.90
2023-05-09T02:26:25.163Z,1.91
2023-05-09T02:27:25.210Z,1.85
2023-05-09T02:28:25.281Z,1.89
2023-05-09T02:29:25.286Z,1.90
2023-05-09T02:30:25.555Z,1.93
2023-05-09T02:31:25.420Z,1.88
2023-05-09T02:32:25.499Z,1.91
2023-05-09T02:33:25.479Z,1.92
2023-05-09T02:34:25.493Z,1.86
2023-05-09T02:35:25.580Z,1.88
2023-05-09T02:36:25.571Z,1.90
2023-05-09T02:37:25.635Z,1.90
2023-05-09T02:38:25.652Z,1.90
2023-05-09T02:39:25.724Z,1.87
2023-05-09T02:40:25.752Z,1.89
2023-05-09T02:41:25.785Z,1.87
2023-05-09T02:42:25.787Z,1.87
2023-05-09T02:43:25.906Z,1.88
2023-05-09T02:44:25.871Z,1.88
2023-05-09T02:45:25.902Z,1.86
2023-05-09T02:46:26.224Z,1.90
2023-05-09T02:47:25.974Z,1.88
2023-05-09T02:48:26.001Z,1.88
2023-05-09T02:49:31.957Z,1.86
2023-05-09T02:50:27.099Z,1.86
2023-05-09T02:51:26.074Z,1.87
2023-05-09T02:52:26.108Z,1.87
2023-05-09T02:53:26.064Z,1.87
2023-05-09T02:54:26.009Z,1.90
2023-05-09T02:55:26.015Z,1.90
2023-05-09T02:56:26.037Z,1.85
2023-05-09T02:57:26.047Z,1.89
2023-05-09T02:58:26.002Z,1.89
2023-05-09T02:59:25.979Z,1.87
2023-05-09T03:00:26.020Z,1.88
2023-05-09T03:01:26.083Z,1.86
2023-05-09T03:02:26.097Z,1.89
2023-05-09T03:03:26.128Z,1.82
2023-05-09T03:04:26.083Z,1.83
2023-05-09T03:05:26.121Z,1.89
2023-05-09T03:06:26.155Z,1.84
2023-05-09T03:07:26.215Z,1.84
2023-05-09T03:08:26.212Z,1.86
2023-05-09T03:09:26.286Z,1.89
2023-05-09T03:10:26.288Z,1.85
2023-05-09T03:11:26.362Z,1.84
2023-05-09T03:12:26.406Z,1.84
2023-05-09T03:13:26.477Z,1.84
2023-05-09T03:14:26.493Z,1.88
2023-05-09T03:15:26.534Z,1.90
2023-05-09T03:16:26.629Z,1.85
2023-05-09T03:17:26.592Z,1.84
2023-05-09T03:18:26.734Z,1.86
2023-05-09T03:19:26.624Z,1.83
2023-05-09T03:20:26.665Z,1.87
2023-05-09T03:21:26.702Z,1.84
2023-05-09T03:22:26.779Z,1.84
2023-05-09T03:23:26.833Z,1.86
2023-05-09T03:24:26.821Z,1.83
2023-05-09T03:25:26.913Z,1.86
2023-05-09T03:26:26.948Z,1.85
2023-05-09T03:27:26.973Z,1.84
2023-05-09T03:28:27.007Z,1.85
2023-05-09T03:29:27.023Z,1.85
2023-05-09T03:30:27.121Z,1.84
2023-05-09T03:31:27.150Z,1.88
2023-05-09T03:32:27.177Z,1.86
2023-05-09T03:33:27.203Z,1.84
2023-05-09T03:34:27.299Z,1.87
2023-05-09T03:35:27.287Z,1.81
2023-05-09T03:36:27.281Z,1.83
2023-05-09T03:37:27.427Z,1.84
2023-05-09T03:38:27.346Z,1.85
2023-05-09T03:39:27.409Z,1.78
2023-05-09T03:40:27.459Z,1.84
2023-05-09T03:41:27.492Z,1.83
2023-05-09T03:42:27.532Z,1.82
2023-05-09T03:43:27.607Z,1.85
2023-05-09T03:44:27.588Z,1.83
2023-05-09T03:45:27.645Z,1.83
2023-05-09T03:46:27.740Z,1.81
2023-05-09T03:47:27.755Z,1.86
2023-05-09T03:48:27.769Z,1.85
2023-05-09T03:49:27.821Z,1.81
2023-05-09T03:50:27.928Z,1.82
2023-05-09T03:51:27.898Z,1.81
2023-05-09T03:52:27.951Z,1.83
2023-05-09T03:53:27.973Z,1.83
2023-05-09T03:54:28.021Z,1.82
2023-05-09T03:55:28.068Z,1.81
2023-05-09T03:56:28.083Z,1.81
2023-05-09T03:57:28.139Z,1.83
2023-05-09T03:58:28.148Z,1.79
2023-05-09T03:59:28.215Z,1.85
2023-05-09T04:00:28.256Z,1.80
2023-05-09T04:01:28.308Z,1.81
2023-05-09T04:02:28.419Z,1.83
2023-05-09T04:03:28.513Z,1.85
2023-05-09T04:04:28.406Z,1.80
2023-05-09T04:05:28.474Z,1.79
2023-05-09T04:06:28.579Z,1.85
2023-05-09T04:07:28.569Z,1.81
2023-05-09T04:08:28.579Z,1.80
2023-05-09T04:09:28.631Z,1.77
2023-05-09T04:10:28.691Z,1.79
2023-05-09T04:11:28.746Z,1.81
2023-05-09T04:12:28.765Z,1.79
2023-05-09T04:13:28.838Z,1.78
2023-05-09T04:14:28.819Z,1.78
2023-05-09T04:15:28.889Z,1.75
2023-05-09T04:16:28.988Z,1.81
2023-05-09T04:17:29.009Z,1.77
2023-05-09T04:18:29.014Z,1.78
2023-05-09T04:19:29.052Z,1.73
2023-05-09T04:20:29.097Z,1.78
2023-05-09T04:21:29.208Z,1.71
2023-05-09T04:22:29.293Z,1.74
2023-05-09T04:23:29.249Z,1.74
2023-05-09T04:24:29.295Z,1.71
2023-05-09T04:25:29.370Z,1.75
2023-05-09T04:26:29.336Z,1.67
2023-05-09T04:27:29.415Z,1.72
2023-05-09T04:28:29.484Z,1.71
2023-05-09T04:29:29.534Z,1.72
2023-05-09T04:30:29.560Z,1.71
2023-05-09T04:31:29.674Z,1.69
2023-05-09T04:32:29.714Z,1.67
2023-05-09T04:33:29.680Z,1.72
2023-05-09T04:34:29.857Z,1.70
2023-05-09T04:35:29.779Z,1.68
2023-05-09T04:36:29.817Z,1.71
2023-05-09T04:37:29.917Z,1.67
2023-05-09T04:38:30.000Z,1.72
2023-05-09T04:39:29.965Z,1.70
2023-05-09T04:40:30.050Z,1.72
2023-05-09T04:41:30.097Z,1.73
2023-05-09T04:42:30.087Z,1.73
2023-05-09T04:43:30.164Z,1.72
2023-05-09T04:44:30.202Z,1.71
2023-05-09T04:45:30.267Z,1.71
2023-05-09T04:46:30.397Z,1.71
2023-05-09T04:47:30.379Z,1.71
2023-05-09T04:48:30.360Z,1.71
2023-05-09T04:49:30.417Z,1.72
2023-05-09T04:50:30.476Z,1.71
2023-05-09T04:51:30.497Z,1.69
2023-05-09T04:52:30.535Z,1.72
2023-05-09T04:53:30.577Z,1.71
2023-05-09T04:54:30.705Z,1.69
2023-05-09T04:55:30.664Z,1.68
2023-05-09T04:56:30.751Z,1.69
2023-05-09T04:57:30.759Z,1.72
2023-05-09T04:58:30.817Z,1.72
2023-05-09T04:59:30.899Z,1.68
2023-05-09T05:00:30.927Z,1.71
2023-05-09T05:01:31.040Z,1.71
2023-05-09T05:02:31.019Z,1.72
2023-05-09T05:03:31.061Z,1.67
2023-05-09T05:04:31.143Z,1.68
2023-05-09T05:05:32.952Z,1.67
2023-05-09T05:06:31.181Z,1.71
2023-05-09T05:07:31.127Z,1.70
2023-05-09T05:08:31.105Z,1.69
2023-05-09T05:09:31.116Z,1.72
2023-05-09T05:10:31.179Z,1.65
2023-05-09T05:11:31.102Z,1.66
2023-05-09T05:12:31.171Z,1.64
2023-05-09T05:13:31.116Z,1.64
2023-05-09T05:14:31.086Z,1.66
2023-05-09T05:15:31.079Z,1.66
2023-05-09T05:16:31.098Z,1.66
2023-05-09T05:17:31.069Z,1.63
2023-05-09T05:18:31.058Z,1.61
2023-05-09T05:19:31.027Z,1.61
2023-05-09T05:20:31.065Z,1.62
2023-05-09T05:21:31.015Z,1.64
2023-05-09T05:22:32.777Z,1.64
2023-05-09T05:23:31.028Z,1.61
2023-05-09T05:24:30.994Z,1.61
2023-05-09T05:25:30.989Z,1.60
2023-05-09T05:26:31.082Z,1.59
2023-05-09T05:27:31.063Z,1.59
2023-05-09T05:28:30.977Z,1.60
2023-05-09T05:29:31.082Z,1.60
2023-05-09T05:30:33.472Z,1.58
2023-05-09T05:31:31.054Z,1.60
2023-05-09T05:32:30.985Z,1.60
2023-05-09T05:33:30.946Z,1.62
2023-05-09T05:34:30.953Z,1.62
2023-05-09T05:35:30.961Z,1.60
2023-05-09T05:36:30.911Z,1.62
2023-05-09T05:37:30.994Z,1.64
2023-05-09T05:38:30.946Z,1.68
2023-05-09T05:39:30.886Z,1.70
2023-05-09T05:40:31.145Z,1.70
2023-05-09T05:41:30.897Z,1.75
2023-05-09T05:42:30.947Z,1.81
2023-05-09T05:43:30.854Z,1.82
2023-05-09T05:44:30.857Z,2.00
2023-05-09T05:45:31.159Z,2.01
2023-05-09T05:46:30.832Z,2.03
2023-05-09T05:47:30.854Z,2.00
2023-05-09T05:48:30.849Z,2.17
2023-05-09T05:49:30.871Z,2.33
2023-05-09T05:50:30.832Z,2.42
2023-05-09T05:51:30.807Z,2.43
2023-05-09T05:52:30.825Z,2.56
2023-05-09T05:53:32.729Z,2.61
2023-05-09T05:54:30.775Z,2.58
2023-05-09T05:55:33.666Z,2.66
2023-05-09T05:56:30.792Z,2.80
2023-05-09T05:57:30.746Z,2.95
2023-05-09T05:58:30.837Z,3.14
2023-05-09T05:59:31.688Z,3.26
2023-05-09T06:00:30.788Z,3.50
2023-05-09T06:01:30.745Z,3.64
2023-05-09T06:02:30.805Z,3.65
2023-05-09T06:03:30.838Z,3.81
2023-05-09T06:04:30.738Z,3.98
2023-05-09T06:05:30.752Z,4.20
2023-05-09T06:06:30.696Z,4.29
2023-05-09T06:07:31.681Z,4.26
2023-05-09T06:08:30.760Z,4.31
2023-05-09T06:09:30.720Z,4.33
2023-05-09T06:10:30.698Z,4.60
2023-05-09T06:11:30.688Z,4.68
2023-05-09T06:12:30.695Z,4.86
2023-05-09T06:13:30.704Z,4.92
2023-05-09T06:14:30.719Z,4.92
2023-05-09T06:15:30.666Z,5.14
2023-05-09T06:16:30.771Z,5.15
2023-05-09T06:17:30.733Z,5.54
2023-05-09T06:18:30.652Z,5.53
2023-05-09T06:19:30.650Z,5.58
2023-05-09T06:20:30.644Z,6.03
2023-05-09T06:21:30.592Z,6.07
2023-05-09T06:22:30.609Z,6.07
2023-05-09T06:23:30.639Z,5.89
2023-05-09T06:24:35.827Z,5.98
2023-05-09T06:25:31.610Z,6.00
2023-05-09T06:26:30.601Z,6.01
2023-05-09T06:27:30.582Z,5.87
2023-05-09T06:28:30.603Z,5.41
2023-05-09T06:29:30.683Z,5.22
2023-05-09T06:30:30.576Z,4.99
2023-05-09T06:31:30.634Z,4.70
2023-05-09T06:32:30.573Z,4.46
2023-05-09T06:33:30.539Z,4.22
2023-05-09T06:34:30.618Z,4.63
2023-05-09T06:35:30.548Z,4.24
2023-05-09T06:36:30.771Z,4.08
2023-05-09T06:37:30.523Z,3.90
2023-05-09T06:38:30.542Z,3.51
2023-05-09T06:39:30.593Z,3.32
2023-05-09T06:40:30.540Z,2.94
2023-05-09T06:41:30.545Z,2.97
2023-05-09T06:42:30.549Z,2.94
2023-05-09T06:43:30.573Z,2.98
2023-05-09T06:44:30.562Z,2.94
2023-05-09T06:45:30.596Z,2.84
2023-05-09T06:46:30.712Z,2.76
2023-05-09T06:47:30.668Z,2.69
2023-05-09T06:48:30.581Z,2.76
2023-05-09T06:49:30.640Z,2.74
2023-05-09T06:50:32.774Z,2.82
2023-05-09T06:51:30.697Z,2.75
2023-05-09T06:52:30.639Z,2.87
2023-05-09T06:53:30.627Z,2.80
2023-05-09T06:54:30.624Z,2.77
2023-05-09T06:55:30.704Z,2.54
2023-05-09T06:56:30.681Z,2.52
2023-05-09T06:57:30.705Z,2.54
2023-05-09T06:58:30.705Z,2.43
2023-05-09T06:59:30.690Z,2.48
2023-05-09T07:00:31.185Z,2.29
2023-05-09T07:01:30.761Z,2.30
2023-05-09T07:02:30.815Z,2.35
2023-05-09T07:03:30.728Z,2.31
2023-05-09T07:04:30.785Z,2.28
2023-05-09T07:05:30.754Z,2.22
2023-05-09T07:06:30.767Z,2.14
2023-05-09T07:07:30.827Z,2.15
2023-05-09T07:08:30.785Z,2.06
2023-05-09T07:09:30.816Z,2.08
2023-05-09T07:10:31.808Z,2.08
2023-05-09T07:11:30.798Z,2.08
2023-05-09T07:12:30.800Z,2.06
2023-05-09T07:13:30.763Z,2.00
2023-05-09T07:14:30.772Z,1.99
2023-05-09T07:15:41.175Z,2.01
2023-05-09T07:16:31.826Z,2.02
2023-05-09T07:17:30.749Z,2.01
2023-05-09T07:18:30.915Z,2.02
2023-05-09T07:19:31.204Z,2.00
2023-05-09T07:20:30.748Z,1.99
2023-05-09T07:21:31.383Z,1.92
2023-05-09T07:22:32.166Z,1.99
2023-05-09T07:23:30.775Z,1.94
2023-05-09T07:24:30.734Z,2.05
2023-05-09T07:25:31.211Z,2.01
2023-05-09T07:26:30.704Z,2.14
2023-05-09T07:27:30.699Z,2.14
2023-05-09T07:28:30.663Z,2.05
2023-05-09T07:29:30.677Z,2.06
2023-05-09T07:30:30.725Z,2.01
2023-05-09T07:31:31.237Z,2.01
2023-05-09T07:32:30.688Z,1.92
2023-05-09T07:33:30.766Z,1.82
2023-05-09T07:34:30.771Z,1.73
2023-05-09T07:35:31.480Z,1.77
2023-05-09T07:36:31.765Z,1.76
2023-05-09T07:37:30.791Z,1.71
2023-05-09T07:38:30.873Z,1.71
2023-05-09T07:39:30.848Z,1.73
2023-05-09T07:40:31.136Z,1.76
2023-05-09T07:41:31.213Z,1.74
2023-05-09T07:42:30.925Z,1.76
2023-05-09T07:43:31.011Z,1.78
2023-05-09T07:44:31.008Z,1.87
2023-05-09T07:45:31.018Z,1.91
2023-05-09T07:46:31.757Z,1.92
2023-05-09T07:47:31.282Z,2.07
2023-05-09T07:48:31.062Z,2.13
2023-05-09T07:49:31.050Z,2.21
2023-05-09T07:50:31.329Z,2.26
2023-05-09T07:51:31.222Z,2.29
2023-05-09T07:52:31.067Z,2.34
2023-05-09T07:53:31.266Z,2.40
2023-05-09T07:54:31.251Z,2.45
2023-05-09T07:55:31.215Z,2.51
2023-05-09T07:56:31.306Z,2.63
2023-05-09T07:57:31.314Z,2.64
2023-05-09T07:58:31.381Z,2.80
2023-05-09T07:59:31.537Z,2.74
2023-05-09T08:00:31.527Z,2.87
2023-05-09T08:01:31.510Z,2.91
2023-05-09T08:02:31.810Z,2.99
2023-05-09T08:03:32.525Z,3.02
2023-05-09T08:04:31.676Z,3.18
2023-05-09T08:05:31.690Z,3.18
2023-05-09T08:06:31.780Z,3.26
2023-05-09T08:07:31.743Z,3.32
2023-05-09T08:08:31.785Z,2.80
2023-05-09T08:09:31.852Z,2.57
2023-05-09T08:10:32.018Z,2.38
2023-05-09T08:11:31.923Z,2.25
2023-05-09T08:12:32.202Z,2.29
2023-05-09T08:13:32.320Z,2.49
2023-05-09T08:14:32.102Z,2.74
2023-05-09T08:15:32.124Z,2.85
2023-05-09T08:16:32.308Z,2.90
2023-05-09T08:17:32.334Z,2.95
2023-05-09T08:18:32.351Z,3.03
2023-05-09T08:19:32.371Z,3.05
2023-05-09T08:20:32.362Z,3.15
2023-05-09T08:21:32.396Z,3.17
2023-05-09T08:22:32.519Z,3.25
2023-05-09T08:23:33.237Z,3.26
2023-05-09T08:24:32.625Z,3.18
2023-05-09T08:25:32.755Z,3.23
2023-05-09T08:26:32.812Z,3.12
2023-05-09T08:27:32.584Z,2.64
2023-05-09T08:28:32.655Z,2.12
2023-05-09T08:29:32.686Z,1.86
2023-05-09T08:30:32.860Z,1.73
2023-05-09T08:31:32.817Z,1.69
2023-05-09T08:32:32.866Z,1.55
2023-05-09T08:33:32.789Z,1.47
2023-05-09T08:34:32.866Z,1.36
2023-05-09T08:35:32.918Z,1.28
2023-05-09T08:36:32.922Z,1.27
2023-05-09T08:37:33.005Z,1.21
2023-05-09T08:38:32.991Z,1.15
2023-05-09T08:39:32.953Z,1.10
2023-05-09T08:40:32.971Z,1.08
2023-05-09T08:41:33.790Z,1.05
2023-05-09T08:42:33.165Z,1.05
2023-05-09T08:43:33.374Z,1.13
2023-05-09T08:44:33.092Z,1.23
2023-05-09T08:45:33.109Z,1.29
2023-05-09T08:46:33.240Z,1.33
2023-05-09T08:47:33.212Z,1.45
2023-05-09T08:48:35.221Z,1.53
2023-05-09T08:49:33.209Z,1.62
2023-05-09T08:50:33.309Z,1.67
2023-05-09T08:51:33.804Z,1.70
2023-05-09T08:52:33.232Z,1.73
2023-05-09T08:53:33.466Z,1.88
2023-05-09T08:54:33.367Z,1.94
2023-05-09T08:55:33.265Z,2.03
2023-05-09T08:56:33.036Z,2.12
2023-05-09T08:57:33.072Z,2.39
2023-05-09T08:58:33.280Z,2.45
2023-05-09T08:59:33.377Z,2.59
2023-05-09T09:00:33.936Z,2.58
2023-05-09T09:01:33.344Z,2.70
2023-05-09T09:02:33.047Z,3.15
2023-05-09T09:03:33.026Z,3.39
2023-05-09T09:04:33.184Z,3.26
2023-05-09T09:05:41.279Z,3.18
2023-05-09T09:06:34.035Z,3.19
2023-05-09T09:07:33.011Z,3.21
2023-05-09T09:08:33.028Z,3.18
2023-05-09T09:09:32.956Z,3.21
2023-05-09T09:10:33.342Z,3.25
2023-05-09T09:11:32.958Z,3.27
2023-05-09T09:12:32.941Z,3.25
2023-05-09T09:13:33.010Z,3.29
2023-05-09T09:14:32.962Z,3.28
2023-05-09T09:15:32.991Z,3.07
2023-05-09T09:16:33.406Z,2.98
2023-05-09T09:17:33.000Z,3.19
2023-05-09T09:18:33.014Z,3.20
2023-05-09T09:19:32.937Z,3.20
2023-05-09T09:20:33.023Z,3.21
2023-05-09T09:21:33.024Z,3.14
2023-05-09T09:22:32.953Z,2.90
2023-05-09T09:23:33.777Z,2.54
2023-05-09T09:24:32.860Z,2.20
2023-05-09T09:25:32.952Z,1.74
2023-05-09T09:26:32.988Z,1.37
2023-05-09T09:27:32.870Z,1.28
2023-05-09T09:28:32.871Z,1.27
2023-05-09T09:29:32.895Z,1.35
2023-05-09T09:30:32.879Z,1.41
2023-05-09T09:31:33.230Z,1.53
2023-05-09T09:32:33.149Z,1.66
2023-05-09T09:33:33.001Z,1.79
2023-05-09T09:34:33.066Z,1.89
2023-05-09T09:35:33.737Z,1.97
2023-05-09T09:36:33.255Z,2.02
2023-05-09T09:37:33.118Z,2.09
2023-05-09T09:38:33.104Z,2.08
2023-05-09T09:39:33.240Z,2.10
2023-05-09T09:40:33.237Z,2.17
2023-05-09T09:41:33.193Z,2.19
2023-05-09T09:42:33.157Z,2.19
2023-05-09T09:43:33.206Z,2.20
2023-05-09T09:44:33.811Z,2.20
2023-05-09T09:45:33.315Z,2.20
2023-05-09T09:46:33.357Z,2.21
2023-05-09T09:47:33.840Z,2.23
2023-05-09T09:48:33.425Z,2.25
2023-05-09T09:49:33.420Z,2.27
2023-05-09T09:50:33.421Z,2.27
2023-05-09T09:51:34.270Z,2.28
2023-05-09T09:52:33.427Z,2.24
2023-05-09T09:53:33.471Z,2.30
2023-05-09T09:54:33.486Z,2.26
2023-05-09T09:55:33.493Z,2.26
2023-05-09T09:56:33.546Z,2.24
2023-05-09T09:57:33.489Z,2.25
2023-05-09T09:58:33.710Z,2.25
2023-05-09T09:59:33.638Z,2.28
2023-05-09T10:00:33.614Z,2.26
2023-05-09T10:01:33.637Z,2.30
2023-05-09T10:02:33.735Z,2.28
2023-05-09T10:03:33.687Z,2.29
2023-05-09T10:04:33.738Z,2.27
2023-05-09T10:05:33.738Z,2.28
2023-05-09T10:06:33.758Z,2.28
2023-05-09T10:07:33.810Z,2.27
2023-05-09T10:08:33.782Z,2.27
2023-05-09T10:09:33.825Z,2.26
2023-05-09T10:10:33.876Z,2.23
2023-05-09T10:11:33.860Z,2.24
2023-05-09T10:12:33.872Z,2.25
2023-05-09T10:13:33.945Z,2.23
2023-05-09T10:14:35.279Z,2.27
2023-05-09T10:15:49.140Z,2.23
2023-05-09T10:16:43.513Z,2.24
2023-05-09T10:17:35.121Z,2.24
2023-05-09T10:18:34.071Z,2.26
2023-05-09T10:19:33.913Z,2.25
2023-05-09T10:20:33.969Z,2.26
2023-05-09T10:21:34.122Z,2.23
2023-05-09T10:22:33.948Z,2.25
2023-05-09T10:23:33.874Z,2.23
2023-05-09T10:24:33.955Z,2.19
2023-05-09T10:25:34.017Z,2.17
2023-05-09T10:26:33.880Z,2.12
2023-05-09T10:27:34.248Z,2.15
2023-05-09T10:28:33.886Z,2.10
2023-05-09T10:29:33.915Z,2.11
2023-05-09T10:30:34.226Z,2.14
2023-05-09T10:31:33.940Z,2.11
2023-05-09T10:32:33.880Z,2.13
2023-05-09T10:33:33.829Z,2.13
2023-05-09T10:34:33.808Z,2.06
2023-05-09T10:35:33.843Z,2.08
2023-05-09T10:36:33.830Z,2.06
2023-05-09T10:37:33.844Z,2.09
2023-05-09T10:38:33.845Z,2.04
2023-05-09T10:39:33.854Z,2.07
2023-05-09T10:40:33.775Z,2.05
2023-05-09T10:41:33.778Z,2.01
2023-05-09T10:42:33.780Z,1.99
2023-05-09T10:43:34.745Z,2.00
2023-05-09T10:44:33.824Z,1.97
2023-05-09T10:45:33.903Z,1.99
2023-05-09T10:46:33.859Z,1.98
2023-05-09T10:47:33.755Z,1.97
2023-05-09T10:48:33.784Z,1.95
2023-05-09T10:49:35.523Z,1.90
2023-05-09T10:50:33.765Z,1.91
2023-05-09T10:51:33.775Z,1.92
2023-05-09T10:52:33.741Z,1.90
2023-05-09T10:53:33.848Z,1.89
2023-05-09T10:54:33.789Z,1.83
2023-05-09T10:55:33.866Z,1.83
2023-05-09T10:56:33.716Z,1.82
2023-05-09T10:57:33.782Z,1.83
2023-05-09T10:58:33.838Z,1.83
2023-05-09T10:59:33.768Z,1.80
2023-05-09T11:00:33.698Z,1.77
2023-05-09T11:01:33.732Z,1.81
2023-05-09T11:02:33.776Z,1.78
2023-05-09T11:03:33.760Z,1.76
2023-05-09T11:04:33.742Z,1.78
2023-05-09T11:05:33.673Z,1.80
2023-05-09T11:06:33.725Z,1.76
2023-05-09T11:07:33.663Z,1.75
2023-05-09T11:08:33.688Z,1.75
2023-05-09T11:09:33.749Z,1.78
2023-05-09T11:10:33.593Z,1.76
2023-05-09T11:11:33.680Z,1.75
2023-05-09T11:12:33.649Z,1.70
2023-05-09T11:13:33.742Z,1.74
2023-05-09T11:14:33.627Z,1.72
2023-05-09T11:15:33.612Z,1.72
2023-05-09T11:16:34.633Z,1.73
2023-05-09T11:17:33.824Z,1.73
2023-05-09T11:18:33.695Z,1.74
2023-05-09T11:19:33.617Z,1.74
2023-05-09T11:20:33.842Z,1.74
2023-05-09T11:21:33.567Z,1.74
2023-05-09T11:22:33.891Z,1.69
2023-05-09T11:23:33.849Z,1.70
2023-05-09T11:24:33.778Z,1.72
2023-05-09T11:25:33.573Z,1.71
2023-05-09T11:26:33.516Z,1.74
2023-05-09T11:27:33.572Z,1.72
2023-05-09T11:28:33.527Z,1.73
2023-05-09T11:29:33.530Z,1.69
2023-05-09T11:30:33.519Z,1.69
2023-05-09T11:31:33.693Z,1.64
2023-05-09T11:32:33.536Z,1.66
2023-05-09T11:33:33.509Z,1.67
2023-05-09T11:34:33.537Z,1.66
2023-05-09T11:35:33.565Z,1.68
2023-05-09T11:36:33.923Z,1.64
2023-05-09T11:37:33.732Z,1.65
2023-05-09T11:38:33.683Z,1.65
2023-05-09T11:39:33.781Z,1.65
2023-05-09T11:40:33.752Z,1.64
2023-05-09T11:41:33.698Z,1.61
2023-05-09T11:42:33.803Z,1.62
2023-05-09T11:43:33.800Z,1.61
2023-05-09T11:44:33.790Z,1.59
2023-05-09T11:45:33.842Z,1.62
2023-05-09T11:46:33.999Z,1.64
2023-05-09T11:47:33.931Z,1.65
2023-05-09T11:48:33.863Z,1.67
2023-05-09T11:49:33.866Z,1.68
2023-05-09T11:50:34.003Z,1.69
2023-05-09T11:51:33.872Z,1.68
2023-05-09T11:52:33.886Z,1.68
2023-05-09T11:53:33.935Z,1.67
2023-05-09T11:54:34.818Z,1.70
2023-05-09T11:55:34.008Z,1.69
2023-05-09T11:56:33.987Z,1.69
2023-05-09T11:57:34.080Z,1.67
2023-05-09T11:58:34.201Z,1.69
2023-05-09T11:59:34.334Z,1.70
2023-05-09T12:00:34.523Z,1.68
2023-05-09T12:01:34.616Z,1.69
2023-05-09T12:02:34.919Z,1.69
2023-05-09T12:03:34.904Z,1.67
2023-05-09T12:04:35.130Z,1.69
2023-05-09T12:05:35.162Z,1.69
2023-05-09T12:06:35.298Z,1.68
2023-05-09T12:07:35.499Z,1.66
2023-05-09T12:08:35.607Z,1.69
2023-05-09T12:09:35.701Z,1.64
2023-05-09T12:10:35.849Z,1.63
2023-05-09T12:11:36.026Z,1.64
2023-05-09T12:12:36.141Z,1.65
2023-05-09T12:13:36.281Z,1.64
2023-05-09T12:14:36.383Z,1.63
2023-05-09T12:15:36.585Z,1.65
2023-05-09T12:16:36.653Z,1.63
2023-05-09T12:17:36.620Z,1.64
2023-05-09T12:18:36.634Z,1.66
2023-05-09T12:19:36.618Z,1.60
2023-05-09T12:20:36.646Z,1.59
2023-05-09T12:21:36.665Z,1.59
2023-05-09T12:22:36.615Z,1.61
2023-05-09T12:23:36.630Z,1.59
2023-05-09T12:24:36.639Z,1.57
2023-05-09T12:25:36.673Z,1.57
2023-05-09T12:26:36.633Z,1.60
2023-05-09T12:27:36.666Z,1.59
2023-05-09T12:28:36.645Z,1.59
2023-05-09T12:29:36.681Z,1.58
2023-05-09T12:30:36.668Z,1.56
2023-05-09T12:31:36.705Z,1.54
2023-05-09T12:32:36.776Z,1.56
2023-05-09T12:33:36.676Z,1.60
2023-05-09T12:34:36.683Z,1.52
2023-05-09T12:35:36.861Z,1.56
2023-05-09T12:36:36.701Z,1.57
2023-05-09T12:37:36.817Z,1.56
2023-05-09T12:38:36.731Z,1.57
2023-05-09T12:39:36.670Z,1.54
2023-05-09T12:40:36.768Z,1.55
2023-05-09T12:41:43.961Z,1.54
2023-05-09T12:42:37.661Z,1.55
2023-05-09T12:43:36.681Z,1.55
2023-05-09T12:44:36.766Z,1.56
2023-05-09T12:45:36.683Z,1.54
2023-05-09T12:46:37.557Z,1.56
2023-05-09T12:47:37.332Z,1.56
2023-05-09T12:48:36.698Z,1.57
2023-05-09T12:49:36.680Z,1.56
2023-05-09T12:50:36.647Z,1.57
2023-05-09T12:51:36.631Z,1.56
2023-05-09T12:52:39.760Z,1.57
2023-05-09T12:53:37.732Z,1.58
2023-05-09T12:54:36.609Z,1.58
2023-05-09T12:55:36.617Z,1.56
2023-05-09T12:56:36.562Z,1.56
2023-05-09T12:57:36.559Z,1.53
2023-05-09T12:58:36.583Z,1.52
2023-05-09T12:59:36.561Z,1.55
2023-05-09T13:00:36.609Z,1.54
2023-05-09T13:01:36.567Z,1.53
2023-05-09T13:02:36.654Z,1.51
2023-05-09T13:03:36.513Z,1.50
2023-05-09T13:04:36.513Z,1.49
2023-05-09T13:05:36.529Z,1.49
2023-05-09T13:06:36.533Z,1.47
2023-05-09T13:07:36.505Z,1.52
2023-05-09T13:08:36.511Z,1.49
2023-05-09T13:09:36.560Z,1.48
2023-05-09T13:10:36.522Z,1.47
2023-05-09T13:11:36.482Z,1.46
2023-05-09T13:12:36.481Z,1.44
2023-05-09T13:13:36.481Z,1.44
2023-05-09T13:14:36.610Z,1.44
2023-05-09T13:15:36.456Z,1.43
2023-05-09T13:16:36.496Z,1.44
2023-05-09T13:17:36.489Z,1.43
2023-05-09T13:18:36.470Z,1.41